createdAt,value
2019-06-20T00:02:07.779Z,23.03
2019-06-20T00:04:35.318Z,20.80
2019-06-20T00:07:03.672Z,21.27
2019-06-20T00:09:30.014Z,18.47
2019-06-20T00:11:56.447Z,21.10
2019-06-20T00:14:22.785Z,22.93
2019-06-20T00:16:49.338Z,23.57
2019-06-20T00:19:17.629Z,27.17
2019-06-20T00:21:46.961Z,26.23
2019-06-20T00:24:15.274Z,25.07
2019-06-20T00:26:41.702Z,23.93
2019-06-20T00:29:08.087Z,24.40
2019-06-20T00:31:36.422Z,21.53
2019-06-20T00:34:03.518Z,22.70
2019-06-20T00:36:29.977Z,27.27
2019-06-20T00:38:56.447Z,28.60
2019-06-20T00:41:22.882Z,23.73
2019-06-20T00:43:53.938Z,25.33
2019-06-20T00:46:20.092Z,21.30
2019-06-20T00:48:46.491Z,20.30
2019-06-20T00:51:14.885Z,20.27
2019-06-20T00:53:41.323Z,17.47
2019-06-20T00:56:07.741Z,20.03
2019-06-20T00:58:37.842Z,32.83
2019-06-20T01:01:04.820Z,29.30
2019-06-20T01:03:31.274Z,28.13
2019-06-20T01:05:57.700Z,25.70
2019-06-20T01:08:24.084Z,20.50
2019-06-20T01:10:54.306Z,23.27
2019-06-20T01:13:33.030Z,19.50
2019-06-20T01:15:53.144Z,20.07
2019-06-20T01:18:19.520Z,21.27
2019-06-20T01:20:46.404Z,30.97
2019-06-20T01:23:12.796Z,32.50
2019-06-20T01:25:41.521Z,27.10
2019-06-20T01:28:08.130Z,21.87
2019-06-20T01:30:36.889Z,19.70
2019-06-20T01:33:04.306Z,21.20
2019-06-20T01:35:32.665Z,25.33
2019-06-20T01:37:59.111Z,23.60
2019-06-20T01:40:25.855Z,34.03
2019-06-20T01:42:54.118Z,25.07
2019-06-20T01:45:21.701Z,18.43
2019-06-20T01:47:48.140Z,26.57
2019-06-20T01:50:14.803Z,25.00
2019-06-20T01:52:41.281Z,23.73
2019-06-20T01:55:09.591Z,21.03
2019-06-20T01:57:38.959Z,20.37
2019-06-20T02:00:07.484Z,20.60
2019-06-20T02:02:33.895Z,20.17
2019-06-20T02:05:07.010Z,25.40
2019-06-20T02:07:35.358Z,29.23
2019-06-20T02:10:04.034Z,29.73
2019-06-20T02:12:30.485Z,25.83
2019-06-20T02:15:04.347Z,24.37
2019-06-20T02:17:32.738Z,31.67
2019-06-20T02:20:02.469Z,26.47
2019-06-20T02:22:30.761Z,34.00
2019-06-20T02:24:57.183Z,31.37
2019-06-20T02:27:26.679Z,31.50
2019-06-20T02:29:53.106Z,21.60
2019-06-20T02:32:19.654Z,20.07
2019-06-20T02:34:47.186Z,21.90
2019-06-20T02:37:17.381Z,22.73
2019-06-20T02:39:43.913Z,35.60
2019-06-20T02:42:13.158Z,30.70
2019-06-20T02:44:39.611Z,21.63
2019-06-20T02:47:08.636Z,27.43
2019-06-20T02:49:37.760Z,31.07
2019-06-20T02:52:12.029Z,26.37
2019-06-20T02:54:45.116Z,26.60
2019-06-20T02:57:11.529Z,22.20
2019-06-20T02:59:37.993Z,23.90
2019-06-20T03:02:07.973Z,23.70
2019-06-20T03:04:34.407Z,24.77
2019-06-20T03:07:00.847Z,20.30
2019-06-20T03:09:31.656Z,23.60
2019-06-20T03:11:59.980Z,21.47
2019-06-20T03:14:26.564Z,21.40
2019-06-20T03:16:53.051Z,19.07
2019-06-20T03:19:19.496Z,18.37
2019-06-20T03:21:47.384Z,22.17
2019-06-20T03:24:13.793Z,26.40
2019-06-20T03:26:41.239Z,19.37
2019-06-20T03:29:07.611Z,21.70
2019-06-20T03:31:33.964Z,19.33
2019-06-20T03:34:02.250Z,22.47
2019-06-20T03:36:28.602Z,17.97
2019-06-20T03:38:55.005Z,17.47
2019-06-20T03:41:21.348Z,17.10
2019-06-20T03:43:50.778Z,17.17
2019-06-20T03:46:20.753Z,17.20
2019-06-20T03:48:48.171Z,17.97
2019-06-20T03:51:17.321Z,17.60
2019-06-20T03:53:43.734Z,18.37
2019-06-20T03:56:12.053Z,17.33
2019-06-20T03:58:42.787Z,22.53
2019-06-20T04:01:06.671Z,17.77
2019-06-20T04:03:33.078Z,26.03
2019-06-20T04:05:59.484Z,29.70
2019-06-20T04:08:25.907Z,40.43
2019-06-20T04:10:52.311Z,19.93
2019-06-20T04:13:18.760Z,25.50
2019-06-20T04:15:45.383Z,21.57
2019-06-20T04:18:11.803Z,19.73
2019-06-20T04:20:38.254Z,20.33
2019-06-20T04:23:04.670Z,17.30
2019-06-20T04:25:31.091Z,20.03
2019-06-20T04:27:57.558Z,18.80
2019-06-20T04:30:25.861Z,17.90
2019-06-20T04:32:52.333Z,19.53
2019-06-20T04:35:21.334Z,20.43
2019-06-20T04:37:46.999Z,21.40
2019-06-20T04:40:14.736Z,21.60
2019-06-20T04:42:42.998Z,20.13
2019-06-20T04:45:14.085Z,22.63
2019-06-20T04:47:42.428Z,23.83
2019-06-20T04:50:13.485Z,21.63
2019-06-20T04:52:41.834Z,23.40
2019-06-20T04:55:11.118Z,18.37
2019-06-20T04:57:37.520Z,18.47
2019-06-20T05:00:05.683Z,21.07
2019-06-20T05:02:35.087Z,16.47
2019-06-20T05:05:06.420Z,22.33
2019-06-20T05:07:40.750Z,20.87
2019-06-20T05:10:07.346Z,17.43
2019-06-20T05:12:36.022Z,17.63
2019-06-20T05:15:06.766Z,22.60
2019-06-20T05:17:34.266Z,18.50
2019-06-20T05:20:05.827Z,18.03
2019-06-20T05:22:32.242Z,26.17
2019-06-20T05:24:58.736Z,20.50
2019-06-20T05:27:25.148Z,20.33
2019-06-20T05:29:53.441Z,20.63
2019-06-20T05:32:21.749Z,17.43
2019-06-20T05:34:49.996Z,16.87
2019-06-20T05:37:16.453Z,17.23
2019-06-20T05:39:42.839Z,14.93
2019-06-20T05:42:09.189Z,20.70
2019-06-20T05:44:37.492Z,16.63
2019-06-20T05:47:12.426Z,17.50
2019-06-20T05:49:32.179Z,22.77
2019-06-20T05:52:00.546Z,18.57
2019-06-20T05:54:28.901Z,17.63
2019-06-20T05:56:58.247Z,37.87
2019-06-20T05:59:24.700Z,16.47
2019-06-20T06:01:56.120Z,16.00
2019-06-20T06:04:22.102Z,19.87
2019-06-20T06:06:48.533Z,15.47
2019-06-20T06:09:14.954Z,23.70
2019-06-20T06:11:52.382Z,20.47
2019-06-20T06:14:16.308Z,20.13
2019-06-20T06:16:45.840Z,20.43
2019-06-20T06:19:12.338Z,16.90
2019-06-20T06:21:39.507Z,16.13
2019-06-20T06:24:05.921Z,16.73
2019-06-20T06:26:32.376Z,20.70
2019-06-20T06:28:58.855Z,17.07
2019-06-20T06:31:28.298Z,19.20
2019-06-20T06:33:56.518Z,15.85
2019-06-20T06:36:24.824Z,20.77
2019-06-20T06:38:51.219Z,21.97
2019-06-20T06:41:18.619Z,20.80
2019-06-20T06:43:46.986Z,13.28
2019-06-20T06:46:13.489Z,16.02
2019-06-20T06:48:44.564Z,17.87
2019-06-20T06:51:10.957Z,18.42
2019-06-20T06:53:37.428Z,15.25
2019-06-20T06:56:03.850Z,13.30
2019-06-20T06:58:32.186Z,16.23
2019-06-20T07:00:58.574Z,11.48
2019-06-20T07:03:30.581Z,10.95
2019-06-20T07:05:58.723Z,10.03
2019-06-20T07:08:27.124Z,12.33
2019-06-20T07:10:53.392Z,12.10
2019-06-20T07:13:20.419Z,12.95
2019-06-20T07:15:48.710Z,11.38
2019-06-20T07:18:15.090Z,13.15
2019-06-20T07:20:41.491Z,11.80
2019-06-20T07:23:07.904Z,10.82
2019-06-20T07:25:34.330Z,11.93
2019-06-20T07:28:00.743Z,11.45
2019-06-20T07:30:27.430Z,9.10
2019-06-20T07:32:57.885Z,12.73
2019-06-20T07:35:24.242Z,8.88
2019-06-20T07:37:50.776Z,9.90
2019-06-20T07:40:17.802Z,12.53
2019-06-20T07:42:44.204Z,10.58
2019-06-20T07:45:11.673Z,10.80
2019-06-20T07:47:38.129Z,9.18
2019-06-20T07:50:09.153Z,11.55
2019-06-20T07:52:37.487Z,10.45
2019-06-20T07:55:10.772Z,11.22
2019-06-20T07:57:38.269Z,6.37
2019-06-20T08:00:10.255Z,13.03
2019-06-20T08:02:39.134Z,13.00
2019-06-20T08:05:06.064Z,8.58
2019-06-20T08:07:32.488Z,7.03
2019-06-20T08:10:03.308Z,7.75
2019-06-20T08:12:27.122Z,8.08
2019-06-20T08:14:53.483Z,9.58
2019-06-20T08:17:34.701Z,10.05
2019-06-20T08:19:51.857Z,11.75
2019-06-20T08:22:18.345Z,8.20
2019-06-20T08:24:44.854Z,10.03
2019-06-20T08:27:14.958Z,8.05
2019-06-20T08:29:41.084Z,11.75
2019-06-20T08:32:07.486Z,10.63
2019-06-20T08:34:33.964Z,8.08
2019-06-20T08:37:00.583Z,12.37
2019-06-20T08:39:29.355Z,22.37
2019-06-20T08:41:56.701Z,9.55
2019-06-20T08:44:23.647Z,9.88
2019-06-20T08:46:50.171Z,6.25
2019-06-20T08:49:18.585Z,12.75
2019-06-20T08:51:45.050Z,7.87
2019-06-20T08:54:12.143Z,11.70
2019-06-20T08:56:38.546Z,17.55
2019-06-20T08:59:04.996Z,9.93
2019-06-20T09:01:31.459Z,10.70
2019-06-20T09:03:58.506Z,11.33
2019-06-20T09:06:26.673Z,9.55
2019-06-20T09:08:54.064Z,6.50
2019-06-20T09:11:23.029Z,12.10
2019-06-20T09:13:49.410Z,10.50
2019-06-20T09:16:24.373Z,6.45
2019-06-20T09:18:44.048Z,45.73
2019-06-20T09:21:10.541Z,8.88
2019-06-20T09:23:38.144Z,5.35
2019-06-20T09:26:04.580Z,10.38
2019-06-20T09:28:31.027Z,8.80
2019-06-20T09:30:57.590Z,11.00
2019-06-20T09:33:26.459Z,13.85
2019-06-20T09:35:53.992Z,9.93
2019-06-20T09:38:21.315Z,11.55
2019-06-20T09:40:47.663Z,12.13
2019-06-20T09:43:27.218Z,9.10
2019-06-20T09:45:46.912Z,8.00
2019-06-20T09:48:13.347Z,9.93
2019-06-20T09:50:41.720Z,13.32
2019-06-20T09:53:08.041Z,8.40
2019-06-20T09:55:35.292Z,8.60
2019-06-20T09:58:03.728Z,12.75
2019-06-20T10:00:32.647Z,13.43
2019-06-20T10:03:01.134Z,7.08
2019-06-20T10:05:30.157Z,10.43
2019-06-20T10:07:58.538Z,8.10
2019-06-20T10:10:28.227Z,6.33
2019-06-20T10:12:55.851Z,7.03
2019-06-20T10:15:24.780Z,8.73
2019-06-20T10:17:51.705Z,6.78
2019-06-20T10:20:20.641Z,9.20
2019-06-20T10:22:48.471Z,8.68
2019-06-20T10:25:17.414Z,5.20
2019-06-20T10:27:48.326Z,7.75
2019-06-20T10:30:19.671Z,5.28
2019-06-20T10:32:48.671Z,7.78
2019-06-20T10:35:15.657Z,6.70
2019-06-20T10:37:45.593Z,8.38
2019-06-20T10:40:14.086Z,8.83
2019-06-20T10:42:44.403Z,7.92
2019-06-20T10:45:14.033Z,14.63
2019-06-20T10:47:40.616Z,7.83
2019-06-20T10:50:07.706Z,3.72
2019-06-20T10:52:35.199Z,4.20
2019-06-20T10:55:03.714Z,7.92
2019-06-20T10:57:30.244Z,7.40
2019-06-20T10:59:56.814Z,8.60
2019-06-20T11:02:26.902Z,8.05
2019-06-20T11:04:53.621Z,7.12
2019-06-20T11:07:20.245Z,4.90
2019-06-20T11:09:49.495Z,4.60
2019-06-20T11:12:19.208Z,4.45
2019-06-20T11:14:46.224Z,9.00
2019-06-20T11:17:12.734Z,7.05
2019-06-20T11:19:43.750Z,9.70
2019-06-20T11:22:12.143Z,14.05
2019-06-20T11:24:39.204Z,8.25
2019-06-20T11:27:07.653Z,15.32
2019-06-20T11:29:34.012Z,13.25
2019-06-20T11:32:00.448Z,11.03
2019-06-20T11:34:26.829Z,10.90
2019-06-20T11:36:53.262Z,9.70
2019-06-20T11:39:19.749Z,10.93
2019-06-20T11:41:46.173Z,11.53
2019-06-20T11:44:12.657Z,9.88
2019-06-20T11:46:40.663Z,11.03
2019-06-20T11:49:07.436Z,10.08
2019-06-20T11:51:37.501Z,10.55
2019-06-20T11:54:04.700Z,14.63
2019-06-20T11:56:31.429Z,9.23
2019-06-20T11:58:57.935Z,12.68
2019-06-20T12:01:32.583Z,11.45
2019-06-20T12:03:52.914Z,9.33
2019-06-20T12:06:21.263Z,13.88
2019-06-20T12:08:48.960Z,8.58
2019-06-20T12:11:19.536Z,9.88
2019-06-20T12:13:46.517Z,15.23
2019-06-20T12:16:17.465Z,7.80
2019-06-20T12:18:45.160Z,7.05
2019-06-20T12:21:11.743Z,10.32
2019-06-20T12:23:39.091Z,16.65
2019-06-20T12:26:06.939Z,7.80
2019-06-20T12:28:39.009Z,10.82
2019-06-20T12:31:18.839Z,10.08
2019-06-20T12:33:35.733Z,11.63
2019-06-20T12:36:03.996Z,15.78
2019-06-20T12:38:31.662Z,7.22
2019-06-20T12:40:58.044Z,10.43
2019-06-20T12:43:26.353Z,5.62
2019-06-20T12:45:52.866Z,5.62
2019-06-20T12:48:19.322Z,5.28
2019-06-20T12:50:45.923Z,13.25
2019-06-20T12:53:14.238Z,4.67
2019-06-20T12:55:40.668Z,5.15
2019-06-20T12:58:09.221Z,5.00
2019-06-20T13:00:41.363Z,7.47
2019-06-20T13:03:09.697Z,6.28
2019-06-20T13:05:36.194Z,8.70
2019-06-20T13:08:03.009Z,11.00
2019-06-20T13:10:29.601Z,19.20
2019-06-20T13:12:56.104Z,16.10
2019-06-20T13:15:24.832Z,5.03
2019-06-20T13:17:52.531Z,6.08
2019-06-20T13:20:19.450Z,5.25
2019-06-20T13:22:46.648Z,8.93
2019-06-20T13:25:15.621Z,7.50
2019-06-20T13:27:43.408Z,14.98
2019-06-20T13:30:10.812Z,8.50
2019-06-20T13:32:38.390Z,8.23
2019-06-20T13:35:09.326Z,8.00
2019-06-20T13:37:35.884Z,6.72
2019-06-20T13:40:06.305Z,16.57
2019-06-20T13:42:36.970Z,10.30
2019-06-20T13:45:13.118Z,12.18
2019-06-20T13:47:38.856Z,8.25
2019-06-20T13:50:06.441Z,28.60
2019-06-20T13:52:34.108Z,8.43
2019-06-20T13:55:00.761Z,14.28
2019-06-20T13:57:29.281Z,5.78
2019-06-20T13:59:55.713Z,7.28
2019-06-20T14:02:23.607Z,5.92
2019-06-20T14:04:52.000Z,11.33
2019-06-20T14:07:18.515Z,7.08
2019-06-20T14:09:46.477Z,5.58
2019-06-20T14:12:16.029Z,8.23
2019-06-20T14:14:43.917Z,10.78
2019-06-20T14:17:10.617Z,7.83
2019-06-20T14:19:37.156Z,8.75
2019-06-20T14:22:03.627Z,8.50
2019-06-20T14:24:30.382Z,6.10
2019-06-20T14:26:56.834Z,6.28
2019-06-20T14:29:28.439Z,7.85
2019-06-20T14:31:54.980Z,5.00
2019-06-20T14:34:21.823Z,4.20
2019-06-20T14:36:50.945Z,5.50
2019-06-20T14:39:20.542Z,4.80
2019-06-20T14:41:47.078Z,11.18
2019-06-20T14:44:15.098Z,9.25
2019-06-20T14:46:41.538Z,6.10
2019-06-20T14:49:09.847Z,9.68
2019-06-20T14:51:36.292Z,8.30
2019-06-20T14:54:04.901Z,10.55
2019-06-20T14:56:31.376Z,6.58
2019-06-20T14:58:57.971Z,11.40
2019-06-20T15:01:24.559Z,12.58
2019-06-20T15:03:51.642Z,9.73
2019-06-20T15:06:19.278Z,7.45
2019-06-20T15:08:47.172Z,12.90
2019-06-20T15:11:14.628Z,6.45
2019-06-20T15:13:41.126Z,10.03
2019-06-20T15:16:07.596Z,5.90
2019-06-20T15:18:34.243Z,6.30
2019-06-20T15:21:00.750Z,7.65
2019-06-20T15:23:27.241Z,7.10
2019-06-20T15:25:54.247Z,6.85
2019-06-20T15:28:21.876Z,29.20
2019-06-20T15:30:52.700Z,7.15
2019-06-20T15:33:20.338Z,5.62
2019-06-20T15:35:49.244Z,8.98
2019-06-20T15:38:17.074Z,5.60
2019-06-20T15:40:43.520Z,8.48
2019-06-20T15:43:09.907Z,4.58
2019-06-20T15:45:37.672Z,4.20
2019-06-20T15:48:08.884Z,6.20
2019-06-20T15:50:35.394Z,7.85
2019-06-20T15:53:01.762Z,8.68
2019-06-20T15:55:28.229Z,8.03
2019-06-20T15:57:56.658Z,5.53
2019-06-20T16:00:25.141Z,5.55
2019-06-20T16:02:51.661Z,10.15
2019-06-20T16:05:20.324Z,6.28
2019-06-20T16:07:47.049Z,5.87
2019-06-20T16:10:13.488Z,5.33
2019-06-20T16:12:42.014Z,43.42
2019-06-20T16:15:12.669Z,4.45
2019-06-20T16:17:40.810Z,4.92
2019-06-20T16:20:07.685Z,6.78
2019-06-20T16:22:36.410Z,5.03
2019-06-20T16:25:04.384Z,8.13
2019-06-20T16:27:32.845Z,5.50
2019-06-20T16:30:01.365Z,6.80
2019-06-20T16:32:28.252Z,11.53
2019-06-20T16:34:54.744Z,6.23
2019-06-20T16:37:21.257Z,7.50
2019-06-20T16:39:47.693Z,9.93
2019-06-20T16:42:14.120Z,18.33
2019-06-20T16:44:42.588Z,12.53
2019-06-20T16:47:12.792Z,9.13
2019-06-20T16:49:41.153Z,7.53
2019-06-20T16:52:07.647Z,9.67
2019-06-20T16:54:36.058Z,11.60
2019-06-20T16:57:03.228Z,7.43
2019-06-20T16:59:29.856Z,8.60
2019-06-20T17:01:56.768Z,7.97
2019-06-20T17:04:26.054Z,7.00
2019-06-20T17:06:52.425Z,8.30
2019-06-20T17:09:18.921Z,10.77
2019-06-20T17:11:45.347Z,8.17
2019-06-20T17:14:12.076Z,8.03
2019-06-20T17:16:39.744Z,7.13
2019-06-20T17:19:06.192Z,12.63
2019-06-20T17:21:32.602Z,8.83
2019-06-20T17:24:01.211Z,12.60
2019-06-20T17:26:30.183Z,10.87
2019-06-20T17:28:58.899Z,8.43
2019-06-20T17:31:25.116Z,9.20
2019-06-20T17:33:57.611Z,7.37
2019-06-20T17:36:19.909Z,8.63
2019-06-20T17:38:46.389Z,10.87
2019-06-20T17:41:14.773Z,7.20
2019-06-20T17:43:41.319Z,8.77
2019-06-20T17:46:09.903Z,25.13
2019-06-20T17:48:36.379Z,8.37
2019-06-20T17:51:03.035Z,10.87
2019-06-20T17:53:31.396Z,24.20
2019-06-20T17:55:58.403Z,17.50
2019-06-20T17:58:25.184Z,13.47
2019-06-20T18:00:54.138Z,10.23
2019-06-20T18:03:22.606Z,8.23
2019-06-20T18:05:51.021Z,8.40
2019-06-20T18:08:17.370Z,10.03
2019-06-20T18:10:45.834Z,24.53
2019-06-20T18:13:14.109Z,17.50
2019-06-20T18:15:40.813Z,53.47
2019-06-20T18:18:07.375Z,31.20
2019-06-20T18:20:34.257Z,15.40
2019-06-20T18:23:00.849Z,16.27
2019-06-20T18:25:31.442Z,13.83
2019-06-20T18:27:56.968Z,10.53
2019-06-20T18:30:41.712Z,17.77
2019-06-20T18:33:08.281Z,21.80
2019-06-20T18:35:34.703Z,11.53
2019-06-20T18:38:01.224Z,17.83
2019-06-20T18:40:28.177Z,17.90
2019-06-20T18:42:54.630Z,20.73
2019-06-20T18:45:23.147Z,20.27
2019-06-20T18:47:49.574Z,14.03
2019-06-20T18:50:18.805Z,12.30
2019-06-20T18:52:52.178Z,11.37
2019-06-20T18:55:16.005Z,12.10
2019-06-20T18:57:42.794Z,13.87
2019-06-20T19:00:13.145Z,18.03
2019-06-20T19:02:42.268Z,11.63
2019-06-20T19:05:11.010Z,12.13
2019-06-20T19:07:38.092Z,16.00
2019-06-20T19:10:09.709Z,15.17
2019-06-20T19:12:36.452Z,18.67
2019-06-20T19:15:12.463Z,11.63
2019-06-20T19:17:39.257Z,15.50
2019-06-20T19:20:09.489Z,16.30
2019-06-20T19:22:36.054Z,16.03
2019-06-20T19:25:05.758Z,18.43
2019-06-20T19:27:45.707Z,12.37
2019-06-20T19:30:00.637Z,12.83
2019-06-20T19:32:29.055Z,14.07
2019-06-20T19:35:02.381Z,15.90
2019-06-20T19:37:26.938Z,13.90
2019-06-20T19:39:55.434Z,14.40
2019-06-20T19:42:21.962Z,17.43
2019-06-20T19:44:48.515Z,22.17
2019-06-20T19:47:15.148Z,17.50
2019-06-20T19:49:42.959Z,17.97
2019-06-20T19:52:09.494Z,18.90
2019-06-20T19:54:35.941Z,18.60
2019-06-20T19:57:02.506Z,19.80
2019-06-20T19:59:32.804Z,18.03
2019-06-20T20:01:59.783Z,15.83
2019-06-20T20:04:26.285Z,17.73
2019-06-20T20:06:54.821Z,17.50
2019-06-20T20:09:21.500Z,18.67
2019-06-20T20:11:47.941Z,18.67
2019-06-20T20:14:14.386Z,21.93
2019-06-20T20:16:40.824Z,18.27
2019-06-20T20:19:09.174Z,17.93
2019-06-20T20:21:35.635Z,20.23
2019-06-20T20:24:02.031Z,19.53
2019-06-20T20:26:33.465Z,15.73
2019-06-20T20:28:59.881Z,19.00
2019-06-20T20:31:26.333Z,15.70
2019-06-20T20:33:52.766Z,16.10
2019-06-20T20:36:24.802Z,20.77
2019-06-20T20:38:49.584Z,23.93
2019-06-20T20:41:15.982Z,16.40
2019-06-20T20:43:42.788Z,20.30
2019-06-20T20:46:09.215Z,19.10
2019-06-20T20:48:35.768Z,19.87
2019-06-20T20:51:02.613Z,18.73
2019-06-20T20:53:29.139Z,22.47
2019-06-20T20:55:55.752Z,19.33
2019-06-20T20:58:22.192Z,24.47
2019-06-20T21:01:01.291Z,38.63
2019-06-20T21:03:29.708Z,29.77
2019-06-20T21:05:56.142Z,19.60
2019-06-20T21:08:22.649Z,24.97
2019-06-20T21:10:51.067Z,20.23
2019-06-20T21:13:19.458Z,24.90
2019-06-20T21:15:47.713Z,21.80
2019-06-20T21:18:17.453Z,22.23
2019-06-20T21:20:46.030Z,24.33
2019-06-20T21:23:14.314Z,26.87
2019-06-20T21:25:40.929Z,23.47
2019-06-20T21:28:07.564Z,23.37
2019-06-20T21:30:36.167Z,26.93
2019-06-20T21:33:02.648Z,20.73
2019-06-20T21:35:29.211Z,23.83
2019-06-20T21:37:55.738Z,24.07
2019-06-20T21:40:22.540Z,22.37
2019-06-20T21:42:51.127Z,24.27
2019-06-20T21:45:20.849Z,23.00
2019-06-20T21:47:49.162Z,25.83
2019-06-20T21:50:15.649Z,24.00
2019-06-20T21:52:44.153Z,22.20
2019-06-20T21:55:10.795Z,22.93
2019-06-20T21:57:37.197Z,24.40
2019-06-20T22:00:22.983Z,27.87
2019-06-20T22:02:51.422Z,22.83
2019-06-20T22:05:19.489Z,21.90
2019-06-20T22:07:46.167Z,27.07
2019-06-20T22:10:12.976Z,23.73
2019-06-20T22:12:39.430Z,27.57
2019-06-20T22:15:10.164Z,24.60
2019-06-20T22:17:39.667Z,44.10
2019-06-20T22:20:06.807Z,47.57
2019-06-20T22:22:33.243Z,35.40
2019-06-20T22:24:59.640Z,29.93
2019-06-20T22:27:29.787Z,29.13
2019-06-20T22:29:57.201Z,30.20
2019-06-20T22:32:23.684Z,30.23
2019-06-20T22:34:54.998Z,29.60
2019-06-20T22:37:25.036Z,23.60
2019-06-20T22:39:51.432Z,24.77
2019-06-20T22:42:18.003Z,23.43
2019-06-20T22:44:44.431Z,29.17
2019-06-20T22:47:10.902Z,26.60
2019-06-20T22:49:37.350Z,31.43
2019-06-20T22:52:03.790Z,25.83
2019-06-20T22:54:30.248Z,19.50
2019-06-20T22:56:56.702Z,22.90
2019-06-20T22:59:23.118Z,22.00
2019-06-20T23:01:49.563Z,18.93
2019-06-20T23:04:16.011Z,26.60
2019-06-20T23:06:56.182Z,23.83
2019-06-20T23:09:15.600Z,22.67
2019-06-20T23:11:42.046Z,22.50
2019-06-20T23:14:08.521Z,23.17
2019-06-20T23:16:36.046Z,21.47
2019-06-20T23:19:02.615Z,21.70
2019-06-20T23:21:29.023Z,23.70
2019-06-20T23:23:55.510Z,21.70
2019-06-20T23:26:21.920Z,23.47
2019-06-20T23:28:50.159Z,25.03
2019-06-20T23:31:16.566Z,22.27
2019-06-20T23:33:42.955Z,27.87
2019-06-20T23:36:09.325Z,27.30
2019-06-20T23:38:35.764Z,22.37
2019-06-20T23:41:02.251Z,26.03
2019-06-20T23:43:28.610Z,24.77
2019-06-20T23:45:55.048Z,24.77
2019-06-20T23:48:21.494Z,28.10
2019-06-20T23:50:47.925Z,23.53
2019-06-20T23:53:27.567Z,19.97
2019-06-20T23:55:54.000Z,20.87
2019-06-20T23:58:21.515Z,21.67
